Time;durP1;ratioP1;P1;durP2;ratioP2;P2;SDS_P1;SDS_P2;PMS_P1;PMS_P2;Temp;Humidity;BMP_temperature;BMP_pressure;BME280_temperature;BME280_humidity;BME280_pressure;Samples;Min_cycle;Max_cycle;Signal;HPM_P1;HPM_P2
2023/10/20 00:01:45;;;;;;;9.57;7.20;;;8.80;99.90;;;;;;4941897;28;20207;-68
2023/10/20 00:04:13;;;;;;;9.93;6.87;;;7.70;99.90;;;;;;4989700;28;20201;-68
2023/10/20 00:06:40;;;;;;;9.73;7.00;;;7.70;99.90;;;;;;4990000;28;20202;-68
2023/10/20 00:09:06;;;;;;;12.37;6.87;;;7.70;99.90;;;;;;4980364;28;20209;-68
2023/10/20 00:11:36;;;;;;;8.47;6.67;;;7.70;99.90;;;;;;4999833;28;20190;-68
2023/10/20 00:14:03;;;;;;;9.37;6.77;;;7.70;99.90;;;;;;4997099;28;20206;-68
2023/10/20 00:16:30;;;;;;;9.07;7.10;;;7.70;99.90;;;;;;4953822;28;20202;-68
2023/10/20 00:19:00;;;;;;;9.50;6.97;;;;;;;;;;4994015;28;20222;-68
2023/10/20 00:21:29;;;;;;;11.70;6.73;;;7.70;99.90;;;;;;4995154;28;20202;-68
2023/10/20 00:23:56;;;;;;;8.50;6.20;;;;;;;;;;4987232;28;20199;-68
2023/10/20 00:26:26;;;;;;;11.47;7.67;;;7.70;99.90;;;;;;4991849;28;20226;-68
2023/10/20 00:28:54;;;;;;;9.47;7.57;;;7.70;99.90;;;;;;4999735;28;20734;-68
2023/10/20 00:31:21;;;;;;;10.20;7.20;;;7.70;99.90;;;;;;4954787;28;20210;-68
2023/10/20 00:33:50;;;;;;;9.87;6.20;;;7.70;99.90;;;;;;4992044;28;20221;-68
2023/10/20 00:36:17;;;;;;;11.50;6.77;;;7.70;99.90;;;;;;4988023;28;21202;-68
2023/10/20 00:38:44;;;;;;;10.47;7.10;;;7.70;99.90;;;;;;4985862;28;20672;-68
2023/10/20 00:41:10;;;;;;;11.97;7.33;;;7.70;99.90;;;;;;4993495;28;20206;-68
2023/10/20 00:43:38;;;;;;;11.27;6.87;;;7.60;99.90;;;;;;4994690;28;20677;-68
2023/10/20 00:46:08;;;;;;;11.43;7.30;;;7.70;99.90;;;;;;5003963;28;20698;-68
2023/10/20 00:48:36;;;;;;;11.07;8.00;;;7.70;99.90;;;;;;4969188;28;20736;-68
2023/10/20 00:51:05;;;;;;;10.53;6.90;;;7.60;99.90;;;;;;4992533;28;20211;-68
2023/10/20 00:53:34;;;;;;;9.73;7.00;;;7.90;99.90;;;;;;4984864;28;20194;-68
2023/10/20 00:56:04;;;;;;;8.87;6.60;;;7.70;99.90;;;;;;4989528;28;20202;-68
2023/10/20 00:58:31;;;;;;;11.47;7.10;;;7.70;99.90;;;;;;4996507;28;20263;-68
2023/10/20 01:00:58;;;;;;;9.30;6.77;;;7.70;99.90;;;;;;5000727;28;20198;-68
2023/10/20 01:03:27;;;;;;;10.73;6.90;;;7.70;99.90;;;;;;4959613;28;20214;-68
2023/10/20 01:05:54;;;;;;;8.80;6.67;;;8.00;99.90;;;;;;4985112;28;20298;-68
2023/10/20 01:08:20;;;;;;;11.23;6.93;;;7.70;99.90;;;;;;4986429;28;20202;-68
2023/10/20 01:10:47;;;;;;;9.10;6.23;;;7.80;99.90;;;;;;4990332;28;20218;-68
2023/10/20 01:13:14;;;;;;;8.33;5.80;;;7.70;99.90;;;;;;4987491;28;20624;-68
2023/10/20 01:15:42;;;;;;;7.77;6.17;;;7.60;99.90;;;;;;4997630;28;20303;-68
2023/10/20 01:18:10;;;;;;;8.23;5.90;;;7.70;99.90;;;;;;4959556;28;20297;-68
2023/10/20 01:20:39;;;;;;;7.57;5.80;;;7.70;99.90;;;;;;4996299;28;20233;-67
2023/10/20 01:23:05;;;;;;;7.47;5.80;;;7.60;99.90;;;;;;4989568;28;20922;-68
2023/10/20 01:25:34;;;;;;;7.03;5.90;;;7.70;99.90;;;;;;4989060;28;20202;-67
2023/10/20 01:28:01;;;;;;;9.03;6.33;;;7.70;99.90;;;;;;4993065;28;20213;-68
2023/10/20 01:30:28;;;;;;;6.20;5.13;;;7.70;99.90;;;;;;4989770;28;20265;-68
2023/10/20 01:32:55;;;;;;;5.40;4.80;;;7.60;99.90;;;;;;4985263;28;20202;-68
2023/10/20 01:35:22;;;;;;;8.90;5.37;;;7.70;99.90;;;;;;4970426;28;20565;-68
2023/10/20 01:37:49;;;;;;;6.60;5.37;;;7.70;99.90;;;;;;4985289;28;20583;-68
2023/10/20 01:40:17;;;;;;;6.77;5.10;;;9.10;99.90;;;;;;4990565;28;20681;-68
2023/10/20 01:42:45;;;;;;;5.70;4.57;;;7.30;99.90;;;;;;4986242;28;20586;-68
2023/10/20 01:45:12;;;;;;;4.80;4.30;;;7.70;99.90;;;;;;4980164;28;20206;-68
2023/10/20 01:47:40;;;;;;;5.83;4.60;;;7.70;99.90;;;;;;4994815;28;20210;-68
2023/10/20 01:50:07;;;;;;;5.10;4.50;;;7.90;99.90;;;;;;4959008;28;20873;-68
2023/10/20 01:52:34;;;;;;;4.57;4.00;;;7.80;99.90;;;;;;4989460;28;20209;-68
2023/10/20 01:55:01;;;;;;;7.57;4.33;;;7.70;99.90;;;;;;4995168;28;20885;-67
2023/10/20 01:57:28;;;;;;;4.93;3.97;;;7.70;99.90;;;;;;4988137;28;20808;-68
2023/10/20 01:59:56;;;;;;;5.83;4.27;;;7.70;99.90;;;;;;4998939;28;20234;-68
2023/10/20 02:02:23;;;;;;;4.30;3.90;;;7.70;99.90;;;;;;4983267;28;20304;-68
2023/10/20 02:04:49;;;;;;;5.60;4.13;;;7.70;99.90;;;;;;4961415;28;20218;-68
2023/10/20 02:07:17;;;;;;;3.80;3.50;;;7.60;99.90;;;;;;4993686;28;20217;-68
2023/10/20 02:09:44;;;;;;;5.77;4.20;;;7.90;99.90;;;;;;4992776;28;20671;-68
2023/10/20 02:12:11;;;;;;;5.00;4.00;;;7.00;99.90;;;;;;4986829;28;20706;-68
2023/10/20 02:14:38;;;;;;;6.03;4.30;;;7.70;99.90;;;;;;5001119;28;20313;-68
2023/10/20 02:17:06;;;;;;;5.43;3.87;;;7.70;99.90;;;;;;4993258;28;20201;-68
2023/10/20 02:19:33;;;;;;;5.13;3.97;;;7.70;99.90;;;;;;4996969;28;20226;-67
2023/10/20 02:22:00;;;;;;;4.23;3.30;;;;;;;;;;4957452;28;21014;-68
2023/10/20 02:24:27;;;;;;;4.27;3.83;;;8.30;99.90;;;;;;4985527;28;20214;-68
2023/10/20 02:26:54;;;;;;;5.80;3.73;;;7.70;99.90;;;;;;4992768;28;20222;-68
2023/10/20 02:29:21;;;;;;;5.90;4.00;;;;;;;;;;4992529;28;20304;-67
2023/10/20 02:31:48;;;;;;;4.63;3.70;;;7.70;99.90;;;;;;4999968;28;20199;-68
2023/10/20 02:34:16;;;;;;;4.67;3.97;;;7.70;99.90;;;;;;4996959;28;20669;-68
2023/10/20 02:36:43;;;;;;;5.33;3.70;;;7.70;99.90;;;;;;4967920;28;20210;-68
2023/10/20 02:39:10;;;;;;;3.60;3.30;;;7.70;99.90;;;;;;5000329;28;20208;-68
2023/10/20 02:41:37;;;;;;;4.20;3.80;;;7.80;99.90;;;;;;4998439;28;20221;-68
2023/10/20 02:44:03;;;;;;;5.67;3.37;;;7.70;99.90;;;;;;4996756;28;20198;-68
2023/10/20 02:46:31;;;;;;;4.43;3.97;;;7.90;99.90;;;;;;5002247;28;20206;-68
2023/10/20 02:48:58;;;;;;;3.70;3.20;;;;;;;;;;5004976;28;20254;-68
2023/10/20 02:51:26;;;;;;;3.23;2.93;;;7.80;99.90;;;;;;5005465;28;20584;-68
2023/10/20 02:53:53;;;;;;;5.17;3.47;;;;;;;;;;4969501;28;20727;-67
2023/10/20 02:56:23;;;;;;;3.87;2.90;;;8.00;99.90;;;;;;4994432;28;20230;-68
2023/10/20 02:58:50;;;;;;;3.87;3.47;;;7.10;99.90;;;;;;4997455;28;20198;-68
2023/10/20 03:01:18;;;;;;;3.20;2.90;;;8.10;99.90;;;;;;4990319;28;20230;-68
2023/10/20 03:03:45;;;;;;;3.30;2.40;;;7.80;99.90;;;;;;5003750;28;20212;-68
2023/10/20 03:06:13;;;;;;;3.83;2.97;;;7.70;99.90;;;;;;4999660;28;20915;-67
2023/10/20 03:08:41;;;;;;;6.07;2.60;;;7.80;99.90;;;;;;4963747;28;20575;-68
2023/10/20 03:11:09;;;;;;;2.67;2.40;;;7.80;99.90;;;;;;4993862;28;20720;-68
2023/10/20 03:13:37;;;;;;;2.87;2.60;;;7.80;99.90;;;;;;5001091;28;20206;-68
2023/10/20 03:16:05;;;;;;;2.83;2.40;;;7.80;99.90;;;;;;4992161;28;20290;-67
2023/10/20 03:18:32;;;;;;;6.73;2.23;;;7.80;99.90;;;;;;4995502;28;21063;-68
2023/10/20 03:21:01;;;;;;;4.27;2.30;;;7.80;99.90;;;;;;5001101;28;20340;-68
2023/10/20 03:23:28;;;;;;;2.57;2.23;;;;;;;;;;4963819;28;20756;-68
2023/10/20 03:25:56;;;;;;;2.30;2.10;;;7.80;99.90;;;;;;4997476;28;20226;-67
2023/10/20 03:28:23;;;;;;;2.30;2.03;;;;;;;;;;4986988;28;20224;-68
2023/10/20 03:30:50;;;;;;;2.07;1.87;;;7.80;99.90;;;;;;4989304;28;20256;-68
2023/10/20 03:33:17;;;;;;;2.13;1.83;;;7.90;99.90;;;;;;5002822;28;20679;-67
2023/10/20 03:35:44;;;;;;;1.80;1.70;;;7.80;99.90;;;;;;4997823;28;20202;-67
2023/10/20 03:38:11;;;;;;;2.00;1.80;;;7.80;99.90;;;;;;4997040;28;22053;-67
2023/10/20 03:40:40;;;;;;;2.20;1.97;;;7.80;99.90;;;;;;4969639;28;20229;-68
2023/10/20 03:43:10;;;;;;;3.73;1.70;;;7.80;99.90;;;;;;4996251;28;20217;-68
2023/10/20 03:45:41;;;;;;;1.73;1.60;;;7.80;99.90;;;;;;4985415;28;20207;-68
2023/10/20 03:48:09;;;;;;;2.37;1.50;;;7.80;99.90;;;;;;4995262;28;20202;-67
2023/10/20 03:50:38;;;;;;;2.50;1.57;;;7.80;99.90;;;;;;4993974;28;20486;-68
2023/10/20 03:53:05;;;;;;;1.30;1.20;;;7.90;99.90;;;;;;4997288;28;20317;-67
2023/10/20 03:55:33;;;;;;;1.30;1.20;;;7.40;99.90;;;;;;4952643;28;20552;-67
2023/10/20 03:58:00;;;;;;;1.30;1.20;;;7.80;99.90;;;;;;4969125;28;20226;-68
2023/10/20 04:00:29;;;;;;;2.50;1.03;;;7.90;99.90;;;;;;4978504;28;20727;-67
2023/10/20 04:02:56;;;;;;;1.17;1.07;;;7.80;99.90;;;;;;4978943;28;20254;-67
2023/10/20 04:05:25;;;;;;;1.07;1.00;;;8.50;99.90;;;;;;4984858;28;20608;-67
2023/10/20 04:07:52;;;;;;;1.20;1.00;;;7.80;99.90;;;;;;4978045;28;20222;-68
2023/10/20 04:10:20;;;;;;;1.30;1.20;;;7.70;99.90;;;;;;4974620;28;20731;-68
2023/10/20 04:12:47;;;;;;;1.00;0.90;;;7.80;99.90;;;;;;4967075;28;20206;-68
2023/10/20 04:15:19;;;;;;;1.50;1.27;;;;;;;;;;4980533;28;20210;-68
2023/10/20 04:17:51;;;;;;;1.93;1.30;;;7.70;99.90;;;;;;4987345;28;20300;-68
2023/10/20 04:20:19;;;;;;;1.30;1.20;;;8.40;99.90;;;;;;4996874;28;20226;-67
2023/10/20 04:22:50;;;;;;;1.60;1.50;;;7.70;99.90;;;;;;4994817;28;20210;-68
2023/10/20 04:25:18;;;;;;;1.27;1.17;;;7.70;99.90;;;;;;4987257;28;20260;-68
2023/10/20 04:27:56;;;;;;;1.90;1.47;;;7.70;99.90;;;;;;4956574;28;20318;-68
2023/10/20 04:47:30;;;;;;;1.97;1.60;;;7.60;99.90;;;;;;4975467;28;20284;-67
2023/10/20 04:57:56;;;;;;;1.70;1.53;;;8.00;99.90;;;;;;4954555;28;20818;-68
2023/10/20 05:00:38;;;;;;;2.47;1.87;;;7.60;99.90;;;;;;4999047;28;20369;-67
2023/10/20 05:03:22;;;;;;;2.43;2.10;;;7.60;99.90;;;;;;4977567;28;20221;-68
2023/10/20 05:05:58;;;;;;;2.07;1.63;;;7.60;99.90;;;;;;4988471;28;20202;-67
2023/10/20 05:08:27;;;;;;;2.77;1.70;;;7.50;99.90;;;;;;5000301;28;20224;-67
2023/10/20 05:10:55;;;;;;;2.23;2.00;;;7.70;99.90;;;;;;4978731;28;20226;-67
2023/10/20 05:13:23;;;;;;;3.73;1.87;;;7.60;99.90;;;;;;4957504;28;20219;-67
2023/10/20 05:15:50;;;;;;;3.33;2.27;;;7.60;99.90;;;;;;4981841;28;20266;-68
2023/10/20 05:18:17;;;;;;;3.50;1.70;;;7.60;99.90;;;;;;4998855;28;20633;-67
2023/10/20 05:20:45;;;;;;;2.57;1.80;;;7.50;99.90;;;;;;4989478;28;20252;-67
2023/10/20 05:23:15;;;;;;;1.97;1.77;;;7.50;99.90;;;;;;4995743;28;21058;-67
2023/10/20 05:25:48;;;;;;;2.30;1.83;;;7.50;99.90;;;;;;4981114;28;20215;-67
2023/10/20 05:28:16;;;;;;;5.10;2.07;;;7.50;99.90;;;;;;4997277;28;20703;-67
2023/10/20 05:30:44;;;;;;;2.77;2.10;;;7.50;99.90;;;;;;4934956;28;20784;-68
2023/10/20 05:33:12;;;;;;;2.50;1.97;;;7.50;99.90;;;;;;4984939;28;20210;-67
2023/10/20 05:35:39;;;;;;;2.37;1.90;;;7.40;99.90;;;;;;4986378;28;20237;-68
2023/10/20 05:38:06;;;;;;;3.00;1.80;;;7.30;99.90;;;;;;4988320;28;20226;-67
2023/10/20 05:40:36;;;;;;;1.97;1.73;;;7.40;99.90;;;;;;4990210;28;20237;-68
2023/10/20 05:43:05;;;;;;;2.13;1.90;;;7.40;99.90;;;;;;4989867;28;20793;-68
2023/10/20 05:45:33;;;;;;;3.57;1.93;;;;;;;;;;4962228;28;20230;-68
2023/10/20 05:48:00;;;;;;;1.87;1.50;;;7.60;99.90;;;;;;4970234;28;21009;-67
2023/10/20 05:50:27;;;;;;;2.83;1.90;;;7.50;99.90;;;;;;4983521;28;20340;-68
2023/10/20 05:52:54;;;;;;;2.30;1.90;;;;;;;;;;4984355;28;20225;-68
2023/10/20 05:55:22;;;;;;;2.33;1.50;;;8.10;99.90;;;;;;4978477;28;20233;-68
2023/10/20 05:57:51;;;;;;;1.57;1.47;;;7.40;99.90;;;;;;4973725;28;20729;-68
2023/10/20 06:00:18;;;;;;;1.80;1.60;;;7.40;99.90;;;;;;4961460;28;20233;-68
2023/10/20 06:02:46;;;;;;;5.03;1.80;;;7.90;99.90;;;;;;4979516;28;20262;-68
2023/10/20 06:05:13;;;;;;;1.93;1.80;;;7.30;99.90;;;;;;4991962;28;20236;-68
2023/10/20 06:07:40;;;;;;;2.53;1.70;;;7.40;99.90;;;;;;4985432;28;20223;-68
2023/10/20 06:10:08;;;;;;;1.43;1.33;;;7.30;99.90;;;;;;4982991;28;20218;-68
2023/10/20 06:12:35;;;;;;;2.03;1.80;;;7.30;99.90;;;;;;4989665;28;20221;-68
2023/10/20 06:15:04;;;;;;;2.73;1.90;;;7.30;99.90;;;;;;4948538;28;20222;-68
2023/10/20 06:17:31;;;;;;;1.93;1.70;;;7.30;99.90;;;;;;4992624;28;20225;-68
2023/10/20 06:19:58;;;;;;;1.63;1.40;;;7.20;99.90;;;;;;4995758;28;20226;-68
2023/10/20 06:22:24;;;;;;;2.27;1.50;;;7.20;99.90;;;;;;4988736;28;20234;-68
2023/10/20 06:24:51;;;;;;;1.43;1.30;;;7.20;99.90;;;;;;5005536;28;20611;-68
2023/10/20 06:27:18;;;;;;;5.77;1.80;;;7.20;99.90;;;;;;4994918;28;20314;-68
2023/10/20 06:29:48;;;;;;;5.20;1.60;;;7.20;99.90;;;;;;4985874;28;20230;-67
2023/10/20 06:32:25;;;;;;;3.40;1.60;;;7.20;99.90;;;;;;4958941;28;20291;-67
2023/10/20 06:34:57;;;;;;;2.07;1.70;;;7.40;99.90;;;;;;4989579;28;20299;-67
2023/10/20 06:37:28;;;;;;;1.70;1.60;;;7.10;99.90;;;;;;5001432;28;20230;-67
2023/10/20 06:39:55;;;;;;;14.33;2.13;;;7.20;99.90;;;;;;5000824;28;20584;-67
2023/10/20 06:42:24;;;;;;;4.03;1.87;;;7.20;99.90;;;;;;4987622;28;20319;-68
2023/10/20 06:44:51;;;;;;;2.60;2.10;;;7.20;99.90;;;;;;4990939;28;20925;-68
2023/10/20 06:47:21;;;;;;;2.47;2.07;;;7.10;99.90;;;;;;4959171;28;20431;-68
2023/10/20 06:49:48;;;;;;;4.63;2.80;;;7.20;99.90;;;;;;4983954;28;20231;-68
2023/10/20 06:52:17;;;;;;;5.00;2.80;;;7.20;99.90;;;;;;4986863;28;20229;-68
2023/10/20 06:54:45;;;;;;;3.83;2.63;;;7.10;99.90;;;;;;4996679;28;20222;-68
2023/10/20 06:57:13;;;;;;;2.90;2.17;;;8.00;99.90;;;;;;4995993;28;20237;-68
2023/10/20 06:59:40;;;;;;;3.43;1.70;;;7.20;99.90;;;;;;4982654;28;20219;-67
2023/10/20 07:02:07;;;;;;;4.00;2.30;;;7.20;99.90;;;;;;4944405;28;20256;-68
2023/10/20 07:04:35;;;;;;;4.30;1.90;;;7.10;99.90;;;;;;4974459;28;20223;-68
2023/10/20 07:07:05;;;;;;;4.20;2.60;;;7.10;99.90;;;;;;4990606;28;20218;-68
2023/10/20 07:09:31;;;;;;;3.10;2.10;;;7.10;99.90;;;;;;4995930;28;20241;-68
2023/10/20 07:11:58;;;;;;;3.33;2.37;;;6.30;99.90;;;;;;4993690;28;20586;-68
2023/10/20 07:14:25;;;;;;;2.87;1.80;;;7.00;99.90;;;;;;4999879;28;20226;-68
2023/10/20 07:16:52;;;;;;;2.50;1.80;;;7.10;99.90;;;;;;4953137;28;20212;-68
2023/10/20 07:19:19;;;;;;;2.03;1.50;;;7.10;99.90;;;;;;4979331;28;20222;-68
2023/10/20 07:21:48;;;;;;;2.23;1.57;;;7.10;99.90;;;;;;4972417;28;20242;-67
2023/10/20 07:24:15;;;;;;;11.80;1.83;;;7.20;99.90;;;;;;4971366;28;20256;-68
2023/10/20 07:26:43;;;;;;;2.40;1.60;;;7.20;99.90;;;;;;4993647;28;20229;-67
2023/10/20 07:29:10;;;;;;;1.43;1.30;;;7.10;99.90;;;;;;4966500;28;20222;-67
2023/10/20 07:31:39;;;;;;;3.87;1.60;;;7.20;99.90;;;;;;4980976;28;20223;-67
2023/10/20 07:34:09;;;;;;;4.37;1.87;;;6.20;99.90;;;;;;4948345;28;20261;-68
2023/10/20 07:36:36;;;;;;;5.30;3.43;;;7.10;99.90;;;;;;4972311;28;20233;-67
2023/10/20 07:39:08;;;;;;;34.53;5.73;;;7.20;99.90;;;;;;4977244;28;20734;-67
2023/10/20 07:41:35;;;;;;;10.40;8.00;;;7.40;99.90;;;;;;4979400;28;20254;-68
2023/10/20 07:44:02;;;;;;;2.47;2.03;;;7.20;99.90;;;;;;4985342;28;20231;-67
2023/10/20 07:46:31;;;;;;;2.20;1.80;;;7.10;99.90;;;;;;4992695;28;20226;-68
2023/10/20 07:48:58;;;;;;;4.40;2.50;;;7.10;99.90;;;;;;4943315;28;20226;-68
2023/10/20 07:51:25;;;;;;;1.57;1.40;;;7.00;99.90;;;;;;4984569;28;20212;-67
2023/10/20 07:53:52;;;;;;;6.73;1.30;;;7.00;99.90;;;;;;4986260;28;20374;-66
2023/10/20 07:56:21;;;;;;;3.97;1.47;;;5.30;99.90;;;;;;4950548;28;20223;-66
2023/10/20 07:58:48;;;;;;;2.53;1.80;;;7.10;99.90;;;;;;4979912;28;20711;-67
2023/10/20 08:01:15;;;;;;;1.77;1.60;;;7.00;99.90;;;;;;4974187;28;20237;-66
2023/10/20 08:03:45;;;;;;;5.00;1.50;;;6.80;99.90;;;;;;4941281;28;21461;-68
2023/10/20 08:06:12;;;;;;;2.53;1.90;;;7.80;99.90;;;;;;4982737;28;20651;-67
2023/10/20 08:08:39;;;;;;;5.57;3.23;;;7.00;99.90;;;;;;4986653;28;20348;-67
2023/10/20 08:11:06;;;;;;;11.13;4.30;;;7.00;99.90;;;;;;4985992;28;20222;-66
2023/10/20 08:13:35;;;;;;;38.53;25.37;;;7.10;99.90;;;;;;4985797;28;20222;-67
2023/10/20 08:16:03;;;;;;;2.17;1.83;;;7.00;99.90;;;;;;4968200;28;20376;-67
2023/10/20 08:18:33;;;;;;;2.63;1.40;;;7.00;99.90;;;;;;4974824;28;20224;-67
2023/10/20 08:21:04;;;;;;;2.00;1.77;;;7.00;99.90;;;;;;4951784;28;20572;-67
2023/10/20 08:23:31;;;;;;;3.00;1.40;;;7.00;99.90;;;;;;4960743;28;20218;-67
2023/10/20 08:25:58;;;;;;;1.90;1.40;;;7.00;99.90;;;;;;4978686;28;20657;-68
2023/10/20 08:28:25;;;;;;;3.07;2.30;;;7.00;99.90;;;;;;4977071;28;20212;-66
2023/10/20 08:31:03;;;;;;;2.43;1.60;;;6.90;99.90;;;;;;4976651;28;20574;-67
2023/10/20 08:33:31;;;;;;;4.20;1.63;;;;;;;;;;4972901;28;20230;-68
2023/10/20 08:35:58;;;;;;;3.83;1.23;;;6.90;99.90;;;;;;4953657;28;20222;-67
2023/10/20 08:38:25;;;;;;;1.67;1.30;;;6.90;99.90;;;;;;4982681;28;20226;-67
2023/10/20 08:40:51;;;;;;;2.47;1.33;;;6.80;99.90;;;;;;4986868;28;20758;-67
2023/10/20 08:43:18;;;;;;;5.30;1.60;;;6.80;99.90;;;;;;4991315;28;20203;-67
2023/10/20 08:45:46;;;;;;;2.40;1.70;;;6.70;99.90;;;;;;4984308;28;20202;-67
2023/10/20 08:48:15;;;;;;;1.57;1.47;;;6.90;99.90;;;;;;4974983;28;20198;-67
2023/10/20 08:50:42;;;;;;;2.30;1.37;;;6.80;99.90;;;;;;4950543;28;20222;-67
2023/10/20 08:53:12;;;;;;;1.20;0.90;;;5.80;99.90;;;;;;4981428;28;20226;-67
2023/10/20 08:55:39;;;;;;;2.47;1.37;;;6.80;99.90;;;;;;4986059;28;20210;-67
2023/10/20 08:58:07;;;;;;;1.63;1.27;;;6.80;99.90;;;;;;4991507;28;20245;-67
2023/10/20 09:00:34;;;;;;;3.20;2.50;;;6.70;99.90;;;;;;4973612;28;20896;-67
2023/10/20 09:03:00;;;;;;;1.50;1.27;;;7.10;99.90;;;;;;4971965;28;20618;-67
2023/10/20 09:05:29;;;;;;;5.13;2.70;;;7.10;99.90;;;;;;4954599;28;20217;-67
2023/10/20 09:07:57;;;;;;;6.40;3.60;;;7.50;99.90;;;;;;4982361;28;20226;-67
2023/10/20 09:10:24;;;;;;;3.10;1.77;;;7.70;99.90;;;;;;4994324;28;20218;-67
2023/10/20 09:12:51;;;;;;;1.47;1.30;;;7.50;99.90;;;;;;4993469;28;20207;-67
2023/10/20 09:15:18;;;;;;;2.10;1.77;;;7.50;99.90;;;;;;4985874;28;20203;-66
2023/10/20 09:17:45;;;;;;;2.33;1.40;;;6.20;99.90;;;;;;4975998;28;20198;-68
2023/10/20 09:20:14;;;;;;;2.17;1.63;;;7.00;99.90;;;;;;4960863;28;20252;-67
2023/10/20 09:22:42;;;;;;;2.50;1.60;;;8.00;99.90;;;;;;4974996;28;20770;-67
2023/10/20 09:25:10;;;;;;;1.83;1.37;;;7.30;99.90;;;;;;4976193;28;20244;-67
2023/10/20 09:27:38;;;;;;;6.73;2.20;;;7.60;99.90;;;;;;4980934;28;21034;-67
2023/10/20 09:30:09;;;;;;;2.60;1.87;;;7.80;99.90;;;;;;4979993;28;21617;-67
2023/10/20 09:32:36;;;;;;;3.10;2.13;;;;;;;;;;4978248;28;21534;-67
2023/10/20 09:35:03;;;;;;;1.47;1.37;;;7.40;99.90;;;;;;4953680;28;22409;-67
2023/10/20 09:37:31;;;;;;;1.50;1.30;;;7.40;99.90;;;;;;4992160;28;20209;-67
2023/10/20 09:40:06;;;;;;;1.83;1.30;;;7.00;99.90;;;;;;4986135;28;20212;-67
2023/10/20 09:42:46;;;;;;;1.30;1.20;;;7.00;99.90;;;;;;4982506;28;20973;-67
2023/10/20 09:45:16;;;;;;;7.20;4.23;;;7.10;99.90;;;;;;4985227;28;20226;-66
2023/10/20 09:47:45;;;;;;;3.33;1.90;;;9.50;99.90;;;;;;4991312;28;20230;-67
2023/10/20 09:50:12;;;;;;;1.40;1.27;;;7.50;99.90;;;;;;4988442;28;20228;-67
2023/10/20 09:52:40;;;;;;;2.23;1.43;;;7.30;99.90;;;;;;4959298;28;20229;-67
2023/10/20 09:55:11;;;;;;;1.83;1.30;;;7.30;99.90;;;;;;4982680;28;20739;-67
2023/10/20 09:57:38;;;;;;;1.60;1.33;;;;;;;;;;4990903;28;20204;-65
2023/10/20 10:00:07;;;;;;;6.33;1.70;;;7.70;99.90;;;;;;4972368;28;20474;-67
2023/10/20 10:02:34;;;;;;;84.73;42.03;;;7.90;99.90;;;;;;4993918;28;20234;-67
2023/10/20 10:05:01;;;;;;;13.90;5.70;;;8.00;99.90;;;;;;4983415;28;20222;-66
2023/10/20 10:07:29;;;;;;;2.00;1.80;;;7.60;99.90;;;;;;4927440;28;20221;-67
2023/10/20 10:09:57;;;;;;;1.93;1.53;;;7.40;99.90;;;;;;4972447;28;21866;-67
2023/10/20 10:12:28;;;;;;;1.77;1.47;;;7.30;99.90;;;;;;4971993;28;20230;-67
2023/10/20 10:14:56;;;;;;;1.27;1.17;;;7.20;99.90;;;;;;4982451;28;20222;-67
2023/10/20 10:17:23;;;;;;;1.10;1.00;;;7.10;99.90;;;;;;4983958;28;20226;-67
2023/10/20 10:19:51;;;;;;;3.07;1.27;;;7.00;99.90;;;;;;4972515;28;20226;-67
2023/10/20 10:22:23;;;;;;;1.93;1.50;;;7.00;99.90;;;;;;4960553;28;20230;-67
2023/10/20 10:24:54;;;;;;;3.67;1.43;;;6.90;99.90;;;;;;4986723;28;20687;-67
2023/10/20 10:27:22;;;;;;;2.37;1.50;;;6.90;99.90;;;;;;4968477;28;20245;-67
2023/10/20 10:29:53;;;;;;;2.47;1.77;;;7.30;99.90;;;;;;4966317;28;20291;-66
2023/10/20 10:32:21;;;;;;;2.47;1.60;;;6.80;99.90;;;;;;4962329;28;20260;-67
2023/10/20 10:34:49;;;;;;;1.87;1.57;;;6.70;99.90;;;;;;4974581;28;20242;-67
2023/10/20 10:37:17;;;;;;;1.70;1.60;;;6.80;99.90;;;;;;4940057;28;20671;-66
2023/10/20 10:39:44;;;;;;;2.13;1.77;;;6.80;99.90;;;;;;4990862;28;20222;-67
2023/10/20 10:42:11;;;;;;;1.87;1.67;;;5.80;99.90;;;;;;4972722;28;20233;-66
2023/10/20 10:44:38;;;;;;;2.37;1.80;;;6.80;99.90;;;;;;4988844;28;20202;-67
2023/10/20 10:47:19;;;;;;;1.90;1.67;;;6.80;99.90;;;;;;4977359;28;20206;-67
2023/10/20 10:49:48;;;;;;;1.70;1.40;;;6.70;99.90;;;;;;4985626;28;20229;-67
2023/10/20 10:52:16;;;;;;;2.47;1.80;;;6.70;99.90;;;;;;4957636;28;20257;-67
2023/10/20 10:54:43;;;;;;;2.03;1.67;;;6.70;99.90;;;;;;4969934;28;20217;-67
2023/10/20 10:57:11;;;;;;;2.30;1.97;;;6.80;99.90;;;;;;4981597;28;21886;-67
2023/10/20 10:59:38;;;;;;;2.67;1.30;;;6.70;99.90;;;;;;4986538;28;20680;-67
2023/10/20 11:02:06;;;;;;;4.70;1.50;;;6.80;99.90;;;;;;4961508;28;21091;-67
2023/10/20 11:04:33;;;;;;;3.77;1.50;;;6.80;99.90;;;;;;4991111;28;20237;-67
2023/10/20 11:07:00;;;;;;;2.33;1.57;;;6.80;99.90;;;;;;4961265;28;20240;-67
2023/10/20 11:09:28;;;;;;;2.20;2.00;;;6.80;99.90;;;;;;4948819;28;20234;-67
2023/10/20 11:11:56;;;;;;;2.60;2.00;;;6.70;99.90;;;;;;4988466;28;20371;-67
2023/10/20 11:14:24;;;;;;;2.73;2.00;;;6.80;99.90;;;;;;4971259;28;21024;-67
2023/10/20 11:16:51;;;;;;;2.73;2.03;;;6.80;99.90;;;;;;4961401;28;20797;-67
2023/10/20 11:19:19;;;;;;;1.80;1.60;;;6.80;99.90;;;;;;4970315;28;20259;-67
2023/10/20 11:21:51;;;;;;;1.47;1.30;;;6.70;99.90;;;;;;4976437;28;20232;-67
2023/10/20 11:24:26;;;;;;;4.30;1.87;;;6.70;99.90;;;;;;4946913;28;20234;-67
2023/10/20 11:26:58;;;;;;;1.70;1.43;;;6.70;99.90;;;;;;4978370;28;20248;-67
2023/10/20 11:29:29;;;;;;;4.30;1.70;;;7.10;99.90;;;;;;4949264;28;20229;-67
2023/10/20 11:31:57;;;;;;;1.47;1.20;;;6.80;99.90;;;;;;4948807;28;20221;-67
2023/10/20 11:34:26;;;;;;;1.60;1.47;;;6.70;99.90;;;;;;4943193;28;20222;-67
2023/10/20 11:36:53;;;;;;;1.40;1.20;;;6.70;99.90;;;;;;4971360;28;20716;-67
2023/10/20 11:39:24;;;;;;;2.07;1.70;;;6.70;99.90;;;;;;4956328;28;20237;-67
2023/10/20 11:41:51;;;;;;;1.57;1.10;;;6.60;99.90;;;;;;4980412;28;20279;-67
2023/10/20 11:44:17;;;;;;;1.53;1.30;;;6.70;99.90;;;;;;4960438;28;20230;-67
2023/10/20 11:46:45;;;;;;;1.57;1.40;;;6.70;99.90;;;;;;4985565;28;20226;-67
2023/10/20 11:49:11;;;;;;;1.97;1.57;;;6.90;99.90;;;;;;4982623;28;20921;-68
2023/10/20 11:51:40;;;;;;;2.40;1.50;;;6.70;99.90;;;;;;4977607;28;20230;-67
2023/10/20 11:54:07;;;;;;;1.50;1.40;;;6.60;99.90;;;;;;4943392;28;20225;-67
2023/10/20 11:56:35;;;;;;;1.60;1.30;;;6.90;99.90;;;;;;4974760;28;20198;-66
2023/10/20 11:59:02;;;;;;;4.13;1.17;;;6.90;99.90;;;;;;4991284;28;20214;-66
2023/10/20 12:01:31;;;;;;;2.07;1.10;;;6.90;99.90;;;;;;4979329;28;20229;-67
2023/10/20 12:03:58;;;;;;;1.20;1.10;;;;;;;;;;4959111;28;20241;-67
2023/10/20 12:06:25;;;;;;;1.30;1.20;;;6.70;99.90;;;;;;4952970;28;20245;-67
2023/10/20 12:08:53;;;;;;;1.40;1.30;;;6.80;99.90;;;;;;4958767;28;20229;-67
2023/10/20 12:11:20;;;;;;;1.10;1.00;;;6.70;99.90;;;;;;4933854;28;20303;-66
2023/10/20 12:13:49;;;;;;;1.60;1.50;;;6.80;99.90;;;;;;4981685;28;20360;-67
2023/10/20 12:16:17;;;;;;;1.37;1.20;;;6.70;99.90;;;;;;4971098;28;20222;-67
2023/10/20 12:18:44;;;;;;;1.47;1.37;;;6.80;99.90;;;;;;4972296;28;20222;-67
2023/10/20 12:21:12;;;;;;;1.40;1.10;;;6.80;99.90;;;;;;4984672;28;20489;-67
2023/10/20 12:23:38;;;;;;;1.30;1.20;;;6.80;99.90;;;;;;4977013;28;20231;-67
2023/10/20 12:26:06;;;;;;;1.43;1.17;;;6.70;99.90;;;;;;4941412;28;20222;-67
2023/10/20 12:28:33;;;;;;;1.10;1.00;;;6.70;99.90;;;;;;4990012;28;20229;-66
2023/10/20 12:31:00;;;;;;;1.17;0.90;;;6.70;99.90;;;;;;4973381;28;20206;-67
2023/10/20 12:33:27;;;;;;;1.30;1.20;;;6.70;99.90;;;;;;4950936;28;20272;-67
2023/10/20 12:35:54;;;;;;;0.80;0.80;;;6.80;99.90;;;;;;4963600;28;21650;-66
2023/10/20 12:38:21;;;;;;;0.83;0.83;;;8.20;99.90;;;;;;4982594;28;20932;-67
2023/10/20 12:40:49;;;;;;;1.00;0.90;;;6.40;99.90;;;;;;4942806;28;20994;-67
2023/10/20 12:43:17;;;;;;;1.00;1.00;;;6.70;99.90;;;;;;4989626;28;20240;-66
2023/10/20 12:45:45;;;;;;;1.07;0.97;;;6.80;99.90;;;;;;4961826;28;20227;-67
2023/10/20 12:48:12;;;;;;;1.37;1.07;;;6.80;99.90;;;;;;4977174;28;20617;-67
2023/10/20 12:50:38;;;;;;;1.60;1.00;;;6.70;99.90;;;;;;4966787;28;20222;-67
2023/10/20 12:53:07;;;;;;;1.00;0.93;;;7.50;99.90;;;;;;4957693;28;20427;-67
2023/10/20 12:55:34;;;;;;;0.90;0.90;;;6.80;99.90;;;;;;4951297;28;20229;-67
2023/10/20 12:58:02;;;;;;;1.87;1.10;;;6.70;99.90;;;;;;4962445;28;20945;-67
2023/10/20 13:00:31;;;;;;;1.10;0.90;;;6.80;99.90;;;;;;4987396;28;20225;-66
2023/10/20 13:02:58;;;;;;;1.83;1.17;;;6.70;99.90;;;;;;4931021;28;21190;-66
2023/10/20 13:05:25;;;;;;;1.87;1.40;;;6.80;99.90;;;;;;4966511;28;20222;-67
2023/10/20 13:07:53;;;;;;;0.70;0.70;;;6.70;99.90;;;;;;4928527;28;20230;-67
2023/10/20 13:10:20;;;;;;;0.97;0.90;;;6.90;99.90;;;;;;4978055;28;20252;-66
2023/10/20 13:12:47;;;;;;;0.80;0.80;;;7.20;99.90;;;;;;4928931;28;20234;-67
2023/10/20 13:15:14;;;;;;;1.10;1.00;;;6.70;99.90;;;;;;4969104;28;20222;-67
2023/10/20 13:17:42;;;;;;;0.80;0.80;;;7.20;99.90;;;;;;4967675;28;20591;-66
2023/10/20 13:20:11;;;;;;;1.47;1.10;;;6.80;99.90;;;;;;4964306;28;20222;-66
2023/10/20 13:22:38;;;;;;;0.90;0.90;;;6.80;99.90;;;;;;4969910;28;21014;-66
2023/10/20 13:25:06;;;;;;;1.60;1.37;;;6.40;99.90;;;;;;4976941;28;20229;-66
2023/10/20 13:27:33;;;;;;;1.33;1.10;;;;;;;;;;4949716;28;20238;-66
2023/10/20 13:30:01;;;;;;;1.10;1.00;;;6.80;99.90;;;;;;4970223;28;20235;-66